TimeEDT,TemperatureF,Dew PointF,Humidity,Sea Level PressureIn,VisibilityMPH,Wind Direction,Wind SpeedMPH,Gust SpeedMPH,PrecipitationIn,Events,Conditions,WindDirDegrees,DateUTC
12:56 AM,53.1,50.0,89,30.02,9.0,SSW,4.6,-,N/A,,Clear,210,2014-03-21 04:56:00
1:56 AM,51.1,48.9,92,30.03,9.0,SW,5.8,-,N/A,,Clear,220,2014-03-21 05:56:00
2:56 AM,51.1,46.9,86,30.04,10.0,NW,9.2,-,N/A,,Clear,320,2014-03-21 06:56:00
3:56 AM,51.1,37.9,61,30.06,10.0,North,12.7,-,N/A,,Clear,360,2014-03-21 07:56:00
4:56 AM,50.0,37.9,63,30.08,10.0,NNE,8.1,-,N/A,,Clear,20,2014-03-21 08:56:00
5:56 AM,50.0,37.9,63,30.10,10.0,NNE,8.1,-,N/A,,Clear,30,2014-03-21 09:56:00
6:56 AM,50.0,39.0,66,30.12,10.0,NE,6.9,-,N/A,,Clear,40,2014-03-21 10:56:00
7:56 AM,52.0,39.9,63,30.14,10.0,NNE,5.8,-,N/A,,Clear,30,2014-03-21 11:56:00
8:56 AM,54.0,39.0,57,30.17,10.0,NNE,8.1,-,N/A,,Clear,30,2014-03-21 12:56:00
9:56 AM,54.0,39.9,59,30.18,10.0,ENE,8.1,-,N/A,,Clear,60,2014-03-21 13:56:00
10:56 AM,55.0,37.0,51,30.17,10.0,East,9.2,-,N/A,,Clear,100,2014-03-21 14:56:00
11:56 AM,59.0,34.0,39,30.17,10.0,East,6.9,-,N/A,,Clear,80,2014-03-21 15:56:00
12:56 PM,61.0,28.9,30,30.18,10.0,ENE,8.1,-,N/A,,Clear,70,2014-03-21 16:56:00
1:56 PM,61.0,25.0,25,30.16,10.0,ESE,5.8,-,N/A,,Clear,110,2014-03-21 17:56:00
2:56 PM,64.0,32.0,30,30.13,10.0,NE,6.9,-,N/A,,Clear,40,2014-03-21 18:56:00
3:56 PM,63.0,33.1,33,30.11,10.0,East,8.1,-,N/A,,Clear,100,2014-03-21 19:56:00
4:56 PM,64.9,35.1,33,30.10,10.0,SE,9.2,-,N/A,,Clear,130,2014-03-21 20:56:00
5:56 PM,63.0,35.1,35,30.12,10.0,South,10.4,-,N/A,,Clear,170,2014-03-21 21:56:00
6:56 PM,60.1,37.9,44,30.13,10.0,South,5.8,-,N/A,,Clear,180,2014-03-21 22:56:00
7:56 PM,55.0,45.0,69,30.13,10.0,South,4.6,-,N/A,,Clear,170,2014-03-21 23:56:00
8:56 PM,53.1,46.0,77,30.13,10.0,South,5.8,-,N/A,,Clear,180,2014-03-22 00:56:00
9:56 PM,52.0,45.0,77,30.13,10.0,South,5.8,-,N/A,,Clear,180,2014-03-22 01:56:00
10:56 PM,52.0,44.1,74,30.13,10.0,South,4.6,-,N/A,,Clear,170,2014-03-22 02:56:00
11:56 PM,52.0,44.1,74,30.13,10.0,South,3.5,-,N/A,,Clear,180,2014-03-22 03:56:00